Terminal Aerodrome Forecast
Issued by NWS Grand Forks, ND

Home | Current Version | Previous Version | Graphics & Text | Print | Product List | Glossary On
Versions: 1 2 3 4 5 6 7 8 9 10 11 12 13 14 15
000
FTUS43 KFGF 222333
TAFFAR
TAF
KFAR 222333Z 2300/2324 15007KT P6SM BKN050
     FM230200 20009KT P6SM BKN050
     FM230400 27010KT P6SM VCSH BKN040
     FM230500 30011KT P6SM VCSH BKN040
     FM230800 33010KT P6SM BKN025
     FM231000 34009KT P6SM OVC015
     FM232100 01009KT P6SM VCSH OVC040=

USA.gov is the U.S. government's official web portal to all federal, state and local government web resources and services.